Time;durP1;ratioP1;P1;durP2;ratioP2;P2;SDS_P1;SDS_P2;PMS_P1;PMS_P2;Temp;Humidity;BMP_temperature;BMP_pressure;BME280_temperature;BME280_humidity;BME280_pressure;Samples;Min_cycle;Max_cycle;Signal;HPM_P1;HPM_P2
2023/05/02 00:00:08;;;;;;;;;;;12.90;99.90;13.30;99755.00;;;;334192;29;82481;-88
2023/05/02 00:00:20;;;;;;;;;;;12.90;99.90;13.30;99754.00;;;;338618;28;96593;-88
2023/05/02 00:00:32;;;;;;;;;;;12.90;99.90;13.30;99757.00;;;;340685;28;83396;-88
2023/05/02 00:00:44;;;;;;;;;;;12.90;99.90;13.20;99758.00;;;;337301;28;96343;-88
2023/05/02 00:00:56;;;;;;;;;;;12.90;99.90;13.30;99762.00;;;;339121;28;83432;-88
2023/05/02 00:01:08;;;;;;;;;;;12.90;99.90;13.20;99757.00;;;;338577;28;95688;-89
2023/05/02 00:01:20;;;;;;;;;;;12.90;99.90;13.10;99752.00;;;;340826;28;83426;-88
2023/05/02 00:01:32;;;;;;;;;;;12.90;99.90;13.20;99756.00;;;;335996;28;95330;-88
2023/05/02 00:01:44;;;;;;;;;;;12.90;99.90;13.20;99751.00;;;;338083;28;83329;-88
2023/05/02 00:01:56;;;;;;;;;;;12.90;99.90;13.20;99754.00;;;;340004;28;95570;-88
2023/05/02 00:02:08;;;;;;;;;;;12.90;99.90;13.30;99755.00;;;;338095;28;82459;-88
2023/05/02 00:02:20;;;;;;;;;;;12.90;99.90;13.20;99756.00;;;;337237;28;96837;-88
2023/05/02 00:02:32;;;;;;;;;;;12.90;99.90;13.20;99753.00;;;;338198;28;82394;-88
2023/05/02 00:02:44;;;;;;;;;;;12.90;99.90;13.10;99756.00;;;;338603;28;94628;-88
2023/05/02 00:02:56;;;;;;;;;;;12.90;99.90;13.20;99760.00;;;;338125;28;83461;-87
2023/05/02 00:03:10;;;;;;;;;;;12.90;99.90;13.20;99761.00;;;;336137;28;96621;-89
2023/05/02 00:03:22;;;;;;;;;;;12.90;99.90;13.20;99751.00;;;;338052;28;83495;-87
2023/05/02 00:03:34;;;;;;;;;;;12.90;99.90;13.20;99762.00;;;;336105;28;95409;-88
2023/05/02 00:03:46;;;;;;;;;;;12.90;99.90;13.20;99759.00;;;;338224;28;83332;-88
2023/05/02 00:03:58;;;;;;;;;;;12.90;99.90;13.20;99759.00;;;;338639;28;96984;-86
2023/05/02 00:04:10;;;;;;;;;;;12.80;99.90;13.20;99759.00;;;;340742;28;83492;-88
2023/05/02 00:04:23;;;;;;;;;;;12.90;99.90;13.30;99766.00;;;;337395;28;96517;-88
2023/05/02 00:04:34;;;;;;;;;;;12.80;99.90;13.30;99764.00;;;;340773;28;82416;-88
2023/05/02 00:04:46;;;;;;;;;;;12.90;99.90;13.30;99762.00;;;;335734;28;96735;-88
2023/05/02 00:04:58;;;;;;;;;;;12.90;99.90;13.20;99755.00;;;;338166;28;83463;-88
2023/05/02 00:05:10;;;;;;;;;;;12.90;99.90;13.20;99761.00;;;;339939;28;96420;-88
2023/05/02 00:05:22;;;;;;;;;;;12.80;99.90;13.20;99755.00;;;;338062;28;83341;-88
2023/05/02 00:05:34;;;;;;;;;;;12.90;99.90;13.10;99751.00;;;;336065;28;95309;-88
2023/05/02 00:05:46;;;;;;;;;;;12.90;99.90;13.10;99760.00;;;;339450;28;82541;-88
2023/05/02 00:06:01;;;;;;;;;;;12.90;99.90;13.30;99762.00;;;;336136;28;95361;-88
2023/05/02 00:06:13;;;;;;;;;;;12.90;99.90;13.30;99763.00;;;;335441;29;83249;-88
2023/05/02 00:06:25;;;;;;;;;;;12.90;99.90;13.30;99761.00;;;;338696;28;95622;-88
2023/05/02 00:06:37;;;;;;;;;;;12.80;99.90;13.40;99754.00;;;;338159;28;83360;-88
2023/05/02 00:06:51;;;;;;;;;;;12.90;99.90;13.40;99751.00;;;;335979;28;97293;-88
2023/05/02 00:07:04;;;;;;;;;;;12.90;99.90;13.30;99757.00;;;;337381;28;83594;-88
2023/05/02 00:07:16;;;;;;;;;;;12.90;99.90;13.30;99760.00;;;;334754;29;93066;-88
2023/05/02 00:07:27;;;;;;;;;;;12.90;99.90;13.30;99761.00;;;;336617;28;83415;-88
2023/05/02 00:07:39;;;;;;;;;;;12.90;99.90;13.30;99759.00;;;;335978;28;95899;-88
2023/05/02 00:07:51;;;;;;;;;;;12.90;99.90;13.30;99758.00;;;;335421;29;83484;-88
2023/05/02 00:08:03;;;;;;;;;;;12.90;99.90;13.40;99759.00;;;;336025;28;95212;-89
2023/05/02 00:08:15;;;;;;;;;;;12.90;99.90;13.40;99755.00;;;;337917;28;83471;-89
2023/05/02 00:08:27;;;;;;;;;;;12.90;99.90;13.30;99756.00;;;;337219;28;96281;-87
2023/05/02 00:08:39;;;;;;;;;;;12.90;99.90;13.30;99766.00;;;;338060;28;82591;-88
2023/05/02 00:08:51;;;;;;;;;;;12.90;99.90;13.40;99756.00;;;;335891;28;96438;-88
2023/05/02 00:09:03;;;;;;;;;;;12.90;99.90;13.40;99756.00;;;;338091;28;82469;-88
2023/05/02 00:09:14;;;;;;;;;;;12.90;99.90;13.40;99753.00;;;;337239;28;96286;-87
2023/05/02 00:09:26;;;;;;;;;;;12.90;99.90;13.40;99754.00;;;;339361;28;83455;-88
2023/05/02 00:09:38;;;;;;;;;;;12.90;99.90;13.40;99761.00;;;;338627;28;95269;-88
2023/05/02 00:09:50;;;;;;;;;;;12.90;99.90;13.30;99749.00;;;;339432;28;83396;-88
2023/05/02 00:10:02;;;;;;;;;;;12.90;99.90;13.30;99759.00;;;;338778;28;95124;-88
2023/05/02 00:10:14;;;;;;;;;;;12.90;99.90;13.40;99756.00;;;;336664;28;83509;-89
2023/05/02 00:10:26;;;;;;;;;;;13.00;99.90;13.40;99756.00;;;;337292;28;96200;-88
2023/05/02 00:10:38;;;;;;;;;;;12.90;99.90;13.50;99762.00;;;;339253;28;83585;-88
2023/05/02 00:10:50;;;;;;;;;;;13.00;99.90;13.40;99760.00;;;;337169;28;97249;-89
2023/05/02 00:11:02;;;;;;;;;;;13.00;99.90;13.50;99754.00;;;;338080;28;83417;-88
2023/05/02 00:11:14;;;;;;;;;;;13.00;99.90;13.40;99749.00;;;;334758;29;96091;-88
2023/05/02 00:11:25;;;;;;;;;;;13.00;99.90;13.40;99758.00;;;;339289;28;83414;-88
2023/05/02 00:11:37;;;;;;;;;;;13.00;99.90;13.40;99754.00;;;;338655;28;96463;-88
2023/05/02 00:11:49;;;;;;;;;;;13.00;99.90;13.50;99758.00;;;;338041;28;83481;-88
2023/05/02 00:12:02;;;;;;;;;;;13.00;99.90;13.40;99760.00;;;;336052;28;94102;-89
2023/05/02 00:12:13;;;;;;;;;;;13.00;99.90;13.30;99761.00;;;;338052;28;82536;-88
2023/05/02 00:12:25;;;;;;;;;;;13.00;99.90;13.30;99765.00;;;;337344;28;95609;-88
2023/05/02 00:12:37;;;;;;;;;;;13.00;99.90;13.30;99754.00;;;;339395;28;83418;-88
2023/05/02 00:12:49;;;;;;;;;;;13.00;99.90;13.40;99759.00;;;;338460;28;97385;-88
2023/05/02 00:13:01;;;;;;;;;;;13.00;99.90;13.40;99759.00;;;;336722;28;83457;-88
2023/05/02 00:13:13;;;;;;;;;;;13.00;99.90;13.40;99753.00;;;;338672;28;95927;-88
2023/05/02 00:13:25;;;;;;;;;;;13.00;99.90;13.30;99753.00;;;;342000;28;82591;-89
2023/05/02 00:13:37;;;;;;;;;;;13.00;99.90;13.30;99760.00;;;;334686;28;95917;-88
2023/05/02 00:13:49;;;;;;;;;;;13.00;99.90;13.20;99759.00;;;;338007;28;83469;-88
2023/05/02 00:14:01;;;;;;;;;;;13.00;99.90;13.30;99756.00;;;;339988;28;96333;-88
2023/05/02 00:14:13;;;;;;;;;;;13.00;99.90;13.40;99747.00;;;;335431;29;83458;-88
2023/05/02 00:14:24;;;;;;;;;;;13.00;99.90;13.30;99758.00;;;;337273;28;96821;-88
2023/05/02 00:14:36;;;;;;;;;;;13.00;99.90;13.30;99754.00;;;;340752;28;83350;-88
2023/05/02 00:14:48;;;;;;;;;;;13.00;99.90;13.30;99753.00;;;;337232;28;97715;-89
2023/05/02 00:15:00;;;;;;;;;;;13.00;99.90;13.20;99759.00;;;;339395;28;83460;-88
2023/05/02 00:15:12;;;;;;;;;;;13.00;99.90;13.30;99751.00;;;;338648;28;94948;-88
2023/05/02 00:15:26;;;;;;;;;;;13.00;99.90;13.30;99761.00;;;;340660;28;83554;-88
2023/05/02 00:15:38;;;;;;;;;;;13.00;99.90;13.30;99757.00;;;;334700;29;96544;-88
2023/05/02 00:15:50;;;;;;;;;;;13.00;99.90;13.30;99753.00;;;;335479;29;82540;-88
2023/05/02 00:16:01;;;;;;;;;;;13.00;99.90;13.40;99756.00;;;;338657;28;96619;-88
2023/05/02 00:16:14;;;;;;;;;;;12.90;99.90;13.40;99754.00;;;;338004;28;82293;-88
2023/05/02 00:16:25;;;;;;;;;;;13.00;99.90;13.30;99759.00;;;;337177;28;97464;-88
2023/05/02 00:16:37;;;;;;;;;;;13.00;99.90;13.30;99760.00;;;;338081;28;82593;-88
2023/05/02 00:16:49;;;;;;;;;;;13.00;99.90;13.30;99759.00;;;;337133;28;96974;-88
2023/05/02 00:17:01;;;;;;;;;;;13.00;99.90;13.30;99758.00;;;;339448;28;83456;-88
2023/05/02 00:17:19;;;;;;;;;;;13.00;99.90;13.30;99761.00;;;;337458;28;95324;-88
2023/05/02 00:17:32;;;;;;;;;;;12.90;99.90;13.20;99762.00;;;;338111;28;83418;-88
2023/05/02 00:17:44;;;;;;;;;;;13.00;99.90;13.20;99760.00;;;;339897;28;94110;-88
2023/05/02 00:17:56;;;;;;;;;;;12.90;99.90;13.10;99763.00;;;;338005;28;83232;-88
2023/05/02 00:18:08;;;;;;;;;;;13.00;99.90;13.10;99750.00;;;;337219;28;95511;-88
2023/05/02 00:18:21;;;;;;;;;;;12.90;99.90;13.10;99753.00;;;;338199;28;83117;-88
2023/05/02 00:18:32;;;;;;;;;;;12.90;99.90;13.20;99756.00;;;;337296;28;96717;-88
2023/05/02 00:18:44;;;;;;;;;;;12.90;99.90;13.30;99760.00;;;;339390;28;82576;-88
2023/05/02 00:18:56;;;;;;;;;;;12.90;99.90;13.20;99760.00;;;;336064;28;94648;-88
2023/05/02 00:19:08;;;;;;;;;;;12.90;99.90;13.30;99749.00;;;;336810;28;83452;-88
2023/05/02 00:19:20;;;;;;;;;;;12.90;99.90;13.30;99761.00;;;;339937;28;96601;-88
2023/05/02 00:19:35;;;;;;;;;;;12.90;99.90;13.30;99750.00;;;;340671;28;82545;-88
2023/05/02 00:19:47;;;;;;;;;;;12.90;99.90;13.40;99749.00;;;;336011;28;96482;-88
2023/05/02 00:19:59;;;;;;;;;;;12.90;99.90;13.20;99747.00;;;;338159;28;82766;-88
2023/05/02 00:20:11;;;;;;;;;;;12.90;99.90;13.20;99752.00;;;;338655;28;95527;-88
2023/05/02 00:20:23;;;;;;;;;;;12.90;99.90;13.30;99761.00;;;;339357;28;82604;-88
2023/05/02 00:20:35;;;;;;;;;;;12.90;99.90;13.20;99760.00;;;;337472;28;92808;-88
2023/05/02 00:20:47;;;;;;;;;;;12.90;99.90;13.10;99758.00;;;;340770;28;83393;-88
2023/05/02 00:20:59;;;;;;;;;;;12.90;99.90;13.20;99751.00;;;;335928;28;97355;-88
2023/05/02 00:21:11;;;;;;;;;;;12.90;99.90;13.30;99755.00;;;;336701;28;83255;-88
2023/05/02 00:21:23;;;;;;;;;;;12.90;99.90;13.10;99756.00;;;;341301;28;95145;-88
2023/05/02 00:21:35;;;;;;;;;;;12.90;99.90;13.20;99749.00;;;;336764;28;82508;-89
2023/05/02 00:21:48;;;;;;;;;;;12.90;99.90;13.10;99748.00;;;;336026;28;96291;-88
2023/05/02 00:21:59;;;;;;;;;;;12.90;99.90;13.10;99751.00;;;;342157;28;82484;-88
2023/05/02 00:22:11;;;;;;;;;;;12.90;99.90;13.20;99749.00;;;;336029;28;96395;-88
2023/05/02 00:22:23;;;;;;;;;;;12.90;99.90;13.20;99754.00;;;;336801;28;83390;-88
2023/05/02 00:22:35;;;;;;;;;;;12.90;99.90;13.20;99749.00;;;;339980;28;95453;-88
2023/05/02 00:22:47;;;;;;;;;;;12.80;99.90;13.10;99754.00;;;;336630;28;83475;-88
2023/05/02 00:22:59;;;;;;;;;;;12.90;99.90;13.10;99757.00;;;;335858;28;95961;-88
2023/05/02 00:23:12;;;;;;;;;;;12.90;99.90;13.20;99755.00;;;;339401;28;83501;-88
2023/05/02 00:23:23;;;;;;;;;;;12.90;99.90;13.20;99759.00;;;;338673;28;94274;-88
2023/05/02 00:23:35;;;;;;;;;;;12.90;99.90;13.10;99757.00;;;;340799;28;83428;-88
2023/05/02 00:23:47;;;;;;;;;;;12.80;99.90;13.10;99754.00;;;;337276;28;94321;-87
2023/05/02 00:23:59;;;;;;;;;;;12.80;99.90;13.20;99757.00;;;;336779;28;82425;-88
2023/05/02 00:24:11;;;;;;;;;;;12.90;99.90;13.20;99748.00;;;;337214;28;95621;-88
2023/05/02 00:24:23;;;;;;;;;;;12.90;99.90;13.20;99749.00;;;;340732;28;83438;-87
2023/05/02 00:24:35;;;;;;;;;;;12.90;99.90;13.20;99754.00;;;;339994;28;95559;-88
2023/05/02 00:24:47;;;;;;;;;;;12.80;99.90;13.10;99751.00;;;;336772;28;83401;-88
2023/05/02 00:24:59;;;;;;;;;;;12.90;99.90;13.20;99750.00;;;;338577;28;98148;-88
2023/05/02 00:25:15;;;;;;;;;;;12.90;99.90;13.20;99754.00;;;;339528;28;83428;-88
2023/05/02 00:25:27;;;;;;;;;;;12.80;99.90;13.20;99759.00;;;;338710;28;93352;-88
2023/05/02 00:25:45;;;;;;;;;;;12.80;99.90;13.30;99761.00;;;;338217;28;83408;-88
2023/05/02 00:25:57;;;;;;;;;;;12.90;99.90;13.30;99757.00;;;;336076;28;96288;-88
2023/05/02 00:26:09;;;;;;;;;;;12.90;99.90;13.30;99754.00;;;;339357;28;83420;-88
2023/05/02 00:26:20;;;;;;;;;;;12.90;99.90;13.30;99751.00;;;;337350;28;95425;-88
2023/05/02 00:26:32;;;;;;;;;;;12.90;99.90;13.30;99749.00;;;;338150;28;83481;-88
2023/05/02 00:26:45;;;;;;;;;;;12.90;99.90;13.30;99747.00;;;;336023;28;96826;-88
2023/05/02 00:26:56;;;;;;;;;;;12.90;99.90;13.30;99740.00;;;;336859;28;82576;-88
2023/05/02 00:27:08;;;;;;;;;;;12.90;99.90;13.20;99744.00;;;;337281;28;97536;-88
2023/05/02 00:27:20;;;;;;;;;;;12.90;99.90;13.20;99747.00;;;;335625;29;82430;-88
2023/05/02 00:27:32;;;;;;;;;;;12.90;99.90;13.10;99756.00;;;;337349;28;96479;-88
2023/05/02 00:27:45;;;;;;;;;;;12.90;99.90;13.10;99746.00;;;;339485;28;83496;-88
2023/05/02 00:27:57;;;;;;;;;;;12.80;99.90;13.10;99754.00;;;;336180;28;96200;-87
2023/05/02 00:28:09;;;;;;;;;;;12.90;99.90;13.10;99753.00;;;;339292;28;83530;-88
2023/05/02 00:28:21;;;;;;;;;;;12.80;99.90;13.10;99753.00;;;;337351;28;96319;-88
2023/05/02 00:28:33;;;;;;;;;;;12.80;99.90;13.20;99747.00;;;;338037;28;82506;-88
2023/05/02 00:28:45;;;;;;;;;;;12.80;99.90;13.30;99745.00;;;;336063;28;96053;-88
2023/05/02 00:28:57;;;;;;;;;;;12.80;99.90;13.20;99752.00;;;;338226;28;83348;-88
2023/05/02 00:29:09;;;;;;;;;;;12.80;99.90;13.10;99751.00;;;;335906;28;96172;-88
2023/05/02 00:29:21;;;;;;;;;;;12.80;99.90;13.00;99753.00;;;;336815;28;83368;-88
2023/05/02 00:29:33;;;;;;;;;;;12.80;99.90;13.10;99747.00;;;;339839;28;96609;-88
2023/05/02 00:29:46;;;;;;;;;;;12.80;99.90;13.20;99748.00;;;;338051;28;83372;-88
2023/05/02 00:29:59;;;;;;;;;;;12.80;99.90;13.00;99752.00;;;;337316;28;96312;-88
2023/05/02 00:30:12;;;;;;;;;;;12.80;99.90;13.00;99748.00;;;;339273;28;83577;-88
2023/05/02 00:30:24;;;;;;;;;;;12.80;99.90;12.90;99754.00;;;;335955;28;95220;-88
2023/05/02 00:30:36;;;;;;;;;;;12.80;99.90;12.90;99742.00;;;;339386;28;82547;-88
2023/05/02 00:30:47;;;;;;;;;;;12.80;99.90;13.00;99749.00;;;;341274;28;96340;-88
2023/05/02 00:30:59;;;;;;;;;;;12.70;99.90;12.90;99745.00;;;;339458;28;83401;-88
2023/05/02 00:31:11;;;;;;;;;;;12.70;99.90;12.80;99746.00;;;;337175;28;96517;-88
2023/05/02 00:31:23;;;;;;;;;;;12.70;99.90;12.90;99748.00;;;;338029;28;83411;-87
2023/05/02 00:31:35;;;;;;;;;;;12.70;99.90;12.80;99756.00;;;;337178;28;96788;-88
2023/05/02 00:31:47;;;;;;;;;;;12.70;99.90;12.90;99754.00;;;;339384;28;83424;-88
2023/05/02 00:31:59;;;;;;;;;;;12.70;99.90;12.90;99751.00;;;;338656;28;95376;-88
2023/05/02 00:32:11;;;;;;;;;;;12.70;99.90;12.90;99750.00;;;;339278;28;82585;-88
2023/05/02 00:32:23;;;;;;;;;;;12.60;99.90;12.80;99752.00;;;;339913;28;96206;-88
2023/05/02 00:32:35;;;;;;;;;;;12.60;99.90;12.80;99748.00;;;;336695;28;83190;-88
2023/05/02 00:32:47;;;;;;;;;;;12.60;99.90;12.80;99749.00;;;;337254;28;95278;-88
2023/05/02 00:32:59;;;;;;;;;;;12.60;99.90;12.90;99746.00;;;;340688;28;83506;-88
2023/05/02 00:33:13;;;;;;;;;;;12.60;99.90;13.00;99746.00;;;;339765;28;96453;-88
2023/05/02 00:33:25;;;;;;;;;;;12.60;99.90;12.90;99744.00;;;;338102;28;83438;-88
2023/05/02 00:33:37;;;;;;;;;;;12.60;99.90;12.90;99749.00;;;;337270;28;94889;-88
2023/05/02 00:33:49;;;;;;;;;;;12.60;99.90;12.80;99743.00;;;;338118;28;83339;-88
2023/05/02 00:34:00;;;;;;;;;;;12.60;99.90;12.80;99752.00;;;;336031;28;95135;-88
2023/05/02 00:34:12;;;;;;;;;;;12.60;99.90;12.90;99747.00;;;;339308;28;83729;-88
2023/05/02 00:34:30;;;;;;;;;;;12.60;99.90;12.80;99751.00;;;;335983;28;95702;-88
2023/05/02 00:34:42;;;;;;;;;;;12.60;99.90;12.90;99747.00;;;;339391;28;83474;-88
2023/05/02 00:34:54;;;;;;;;;;;12.60;99.90;12.90;99734.00;;;;339880;28;96239;-88
2023/05/02 00:35:07;;;;;;;;;;;12.60;99.90;12.90;99751.00;;;;336738;28;83408;-88
2023/05/02 00:35:18;;;;;;;;;;;12.60;99.90;12.90;99754.00;;;;334516;29;96467;-88
2023/05/02 00:35:32;;;;;;;;;;;12.60;99.90;12.80;99742.00;;;;339271;28;83572;-88
2023/05/02 00:35:44;;;;;;;;;;;12.60;99.90;12.80;99744.00;;;;338615;28;96380;-88
2023/05/02 00:35:55;;;;;;;;;;;12.60;99.90;12.70;99754.00;;;;342052;28;83407;-88
2023/05/02 00:36:17;;;;;;;;;;;12.50;99.90;12.90;99754.00;;;;335981;28;96279;-88
2023/05/02 00:36:29;;;;;;;;;;;12.50;99.90;12.90;99753.00;;;;336671;28;83446;-89
2023/05/02 00:36:41;;;;;;;;;;;12.50;99.90;12.90;99744.00;;;;340031;28;95354;-88
2023/05/02 00:36:53;;;;;;;;;;;12.50;99.90;12.80;99746.00;;;;338019;28;82592;-88
2023/05/02 00:37:05;;;;;;;;;;;12.50;99.90;12.80;99738.00;;;;337285;28;96224;-88
2023/05/02 00:37:16;;;;;;;;;;;12.50;99.90;12.80;99750.00;;;;339432;28;83430;-88
2023/05/02 00:37:28;;;;;;;;;;;12.50;99.90;12.90;99748.00;;;;337148;28;98174;-88
2023/05/02 00:37:40;;;;;;;;;;;12.50;99.90;12.90;99748.00;;;;335557;29;82615;-88
2023/05/02 00:37:52;;;;;;;;;;;12.50;99.90;13.00;99749.00;;;;337332;28;95922;-89
2023/05/02 00:38:05;;;;;;;;;;;12.50;99.90;12.90;99743.00;;;;338164;28;82481;-88
2023/05/02 00:38:16;;;;;;;;;;;12.50;99.90;12.90;99746.00;;;;337348;28;96138;-88
2023/05/02 00:38:29;;;;;;;;;;;12.50;99.90;12.90;99743.00;;;;339619;28;82532;-88
2023/05/02 00:38:40;;;;;;;;;;;12.50;99.90;13.00;99742.00;;;;335794;28;95910;-88
2023/05/02 00:38:52;;;;;;;;;;;12.50;99.90;12.90;99749.00;;;;339290;28;83552;-88
2023/05/02 00:39:04;;;;;;;;;;;12.50;99.90;13.00;99735.00;;;;337281;28;95513;-88
2023/05/02 00:39:16;;;;;;;;;;;12.60;99.90;13.00;99746.00;;;;340594;28;83413;-88
2023/05/02 00:39:28;;;;;;;;;;;12.60;99.90;12.90;99739.00;;;;337198;28;97613;-88
2023/05/02 00:39:39;;;;;;;;;;;12.60;99.90;12.90;99742.00;;;;336705;28;83438;-88
2023/05/02 00:39:51;;;;;;;;;;;12.60;99.90;13.00;99746.00;;;;338633;28;96518;-89
2023/05/02 00:40:04;;;;;;;;;;;12.60;99.90;13.00;99745.00;;;;340694;28;83351;-88
2023/05/02 00:40:16;;;;;;;;;;;12.60;99.90;12.90;99740.00;;;;337130;28;95670;-89
2023/05/02 00:40:28;;;;;;;;;;;12.60;99.90;12.80;99751.00;;;;335434;29;83844;-88
2023/05/02 00:40:49;;;;;;;;;;;12.60;99.90;13.00;99746.00;;;;337226;28;95885;-88
2023/05/02 00:41:01;;;;;;;;;;;12.60;99.90;13.00;99743.00;;;;339379;28;82444;-89
2023/05/02 00:41:13;;;;;;;;;;;12.60;99.90;13.00;99741.00;;;;337309;28;96882;-89
2023/05/02 00:41:25;;;;;;;;;;;12.60;99.90;12.90;99747.00;;;;339274;28;82544;-88
2023/05/02 00:41:37;;;;;;;;;;;12.60;99.90;13.00;99746.00;;;;335920;28;96177;-88
2023/05/02 00:41:55;;;;;;;;;;;12.60;99.90;13.00;99738.00;;;;336748;28;83394;-88
2023/05/02 00:42:07;;;;;;;;;;;12.60;99.90;13.00;99741.00;;;;335905;28;95437;-88
2023/05/02 00:42:19;;;;;;;;;;;12.60;99.90;13.00;99741.00;;;;336637;28;82553;-88
2023/05/02 00:42:35;;;;;;;;;;;12.60;99.90;13.00;99740.00;;;;337249;28;96588;-88
2023/05/02 00:42:47;;;;;;;;;;;12.60;99.90;13.00;99744.00;;;;339397;28;82497;-89
2023/05/02 00:42:59;;;;;;;;;;;12.60;99.90;12.90;99752.00;;;;338574;28;96429;-88
2023/05/02 00:43:11;;;;;;;;;;;12.60;99.90;13.00;99741.00;;;;342066;28;82474;-88
2023/05/02 00:43:22;;;;;;;;;;;12.60;99.90;13.10;99737.00;;;;337342;28;96218;-89
2023/05/02 00:43:35;;;;;;;;;;;12.60;99.90;13.00;99741.00;;;;339286;28;82629;-88
2023/05/02 00:43:47;;;;;;;;;;;12.60;99.90;12.90;99743.00;;;;338588;28;94952;-88
2023/05/02 00:43:59;;;;;;;;;;;12.60;99.90;13.00;99729.00;;;;338086;28;83367;-88
2023/05/02 00:44:11;;;;;;;;;;;12.60;99.90;12.90;99736.00;;;;337209;28;96412;-88
2023/05/02 00:44:23;;;;;;;;;;;12.60;99.90;13.00;99745.00;;;;340585;28;82608;-88
2023/05/02 00:44:35;;;;;;;;;;;12.60;99.90;13.00;99740.00;;;;334759;29;96361;-88
2023/05/02 00:44:47;;;;;;;;;;;12.60;99.90;12.90;99739.00;;;;338045;28;82552;-88
2023/05/02 00:44:59;;;;;;;;;;;12.60;99.90;12.90;99736.00;;;;338621;28;96405;-88
2023/05/02 00:45:11;;;;;;;;;;;12.60;99.90;13.00;99738.00;;;;335445;29;83419;-88
2023/05/02 00:45:23;;;;;;;;;;;12.60;99.90;13.00;99736.00;;;;337129;28;96842;-88
2023/05/02 00:45:35;;;;;;;;;;;12.60;99.90;13.10;99747.00;;;;340652;28;83421;-88
2023/05/02 00:45:46;;;;;;;;;;;12.60;99.90;13.10;99744.00;;;;337175;28;98105;-89
2023/05/02 00:45:58;;;;;;;;;;;12.60;99.90;13.00;99742.00;;;;340805;28;82494;-88
2023/05/02 00:46:11;;;;;;;;;;;12.60;99.90;13.00;99745.00;;;;338516;28;96672;-88
2023/05/02 00:46:23;;;;;;;;;;;12.70;99.90;12.90;99748.00;;;;338010;28;83604;-88
2023/05/02 00:46:35;;;;;;;;;;;12.60;99.90;13.10;99741.00;;;;338643;28;95314;-89
2023/05/02 00:46:47;;;;;;;;;;;12.60;99.90;13.00;99743.00;;;;340669;28;83486;-88
2023/05/02 00:47:00;;;;;;;;;;;12.60;99.90;13.10;99740.00;;;;338568;28;93947;-88
2023/05/02 00:47:13;;;;;;;;;;;12.60;99.90;13.10;99742.00;;;;338055;28;83402;-88
2023/05/02 00:47:25;;;;;;;;;;;12.60;99.90;13.00;99743.00;;;;335919;28;93104;-89
2023/05/02 00:47:37;;;;;;;;;;;12.70;99.90;13.00;99743.00;;;;342038;28;82348;-88
2023/05/02 00:47:49;;;;;;;;;;;12.70;99.90;13.10;99743.00;;;;337283;28;96731;-88
2023/05/02 00:48:01;;;;;;;;;;;12.70;99.90;13.10;99744.00;;;;336910;28;83374;-89
2023/05/02 00:48:13;;;;;;;;;;;12.60;99.90;13.10;99749.00;;;;338598;28;96729;-88
2023/05/02 00:48:25;;;;;;;;;;;12.70;99.90;13.00;99743.00;;;;338058;28;83431;-88
2023/05/02 00:48:37;;;;;;;;;;;12.70;99.90;13.00;99737.00;;;;339971;28;96882;-88
2023/05/02 00:48:49;;;;;;;;;;;12.70;99.90;13.10;99740.00;;;;339267;28;83426;-88
2023/05/02 00:49:01;;;;;;;;;;;12.70;99.90;13.10;99738.00;;;;337438;28;95298;-89
2023/05/02 00:49:13;;;;;;;;;;;12.70;99.90;13.00;99739.00;;;;339415;28;83390;-89
2023/05/02 00:49:25;;;;;;;;;;;12.70;99.90;13.00;99738.00;;;;338543;28;96408;-88
2023/05/02 00:49:37;;;;;;;;;;;12.70;99.90;13.00;99740.00;;;;340672;28;83206;-88
2023/05/02 00:49:49;;;;;;;;;;;12.70;99.90;13.00;99744.00;;;;337320;28;96459;-88
2023/05/02 00:50:04;;;;;;;;;;;12.70;99.90;13.10;99741.00;;;;338154;28;83412;-88
2023/05/02 00:50:16;;;;;;;;;;;12.70;99.90;13.00;99747.00;;;;338448;28;94661;-88
2023/05/02 00:50:28;;;;;;;;;;;12.70;99.90;13.00;99742.00;;;;339389;28;82613;-88
2023/05/02 00:50:41;;;;;;;;;;;12.70;99.90;13.10;99737.00;;;;337356;28;95010;-88
2023/05/02 00:50:53;;;;;;;;;;;12.70;99.90;13.00;99744.00;;;;338018;28;82563;-88
2023/05/02 00:51:07;;;;;;;;;;;12.70;99.90;13.00;99742.00;;;;335961;28;94083;-89
2023/05/02 00:51:19;;;;;;;;;;;12.70;99.90;13.00;99742.00;;;;338052;28;83272;-89
2023/05/02 00:51:34;;;;;;;;;;;12.70;99.90;13.10;99738.00;;;;336006;28;95868;-88
2023/05/02 00:51:46;;;;;;;;;;;12.70;99.90;13.10;99739.00;;;;337936;28;83509;-88
2023/05/02 00:51:57;;;;;;;;;;;12.70;99.90;13.00;99742.00;;;;338471;28;96203;-88
2023/05/02 00:52:09;;;;;;;;;;;12.70;99.90;13.00;99739.00;;;;337759;28;83540;-88
2023/05/02 00:52:21;;;;;;;;;;;12.70;99.90;13.00;99747.00;;;;338605;28;95713;-88
2023/05/02 00:52:33;;;;;;;;;;;12.70;99.90;13.00;99742.00;;;;339290;28;83223;-87
2023/05/02 00:52:45;;;;;;;;;;;12.70;99.90;13.00;99740.00;;;;338830;28;92717;-87
2023/05/02 00:52:58;;;;;;;;;;;12.70;99.90;13.00;99740.00;;;;337985;28;83595;-88
2023/05/02 00:53:10;;;;;;;;;;;12.70;99.90;13.00;99740.00;;;;337376;28;96758;-87
2023/05/02 00:53:21;;;;;;;;;;;12.70;99.90;13.00;99743.00;;;;339426;28;83415;-87
2023/05/02 00:53:34;;;;;;;;;;;12.70;99.90;12.90;99737.00;;;;337202;28;94879;-87
2023/05/02 00:53:46;;;;;;;;;;;12.70;99.90;13.00;99745.00;;;;338049;28;83506;-88
2023/05/02 00:53:59;;;;;;;;;;;12.70;99.90;13.00;99741.00;;;;338718;28;96322;-87
2023/05/02 00:54:12;;;;;;;;;;;12.70;99.90;13.00;99744.00;;;;339477;28;83366;-87
2023/05/02 00:54:23;;;;;;;;;;;12.70;99.90;13.00;99749.00;;;;337390;28;95315;-87
2023/05/02 00:54:38;;;;;;;;;;;12.70;99.90;13.00;99737.00;;;;339681;28;83314;-87
2023/05/02 00:54:50;;;;;;;;;;;12.70;99.90;13.00;99747.00;;;;341244;28;97204;-87
2023/05/02 00:55:02;;;;;;;;;;;12.70;99.90;12.90;99737.00;;;;340801;28;82517;-87
2023/05/02 00:55:14;;;;;;;;;;;12.70;99.90;13.00;99734.00;;;;337424;28;95288;-87
2023/05/02 00:55:26;;;;;;;;;;;12.70;99.90;13.00;99742.00;;;;339368;28;82519;-87
2023/05/02 00:55:38;;;;;;;;;;;12.70;99.90;12.90;99736.00;;;;340148;28;95482;-86
2023/05/02 00:55:49;;;;;;;;;;;12.70;99.90;13.00;99736.00;;;;339546;28;83411;-87
2023/05/02 00:56:01;;;;;;;;;;;12.70;99.90;12.90;99749.00;;;;338762;28;96609;-88
2023/05/02 00:56:13;;;;;;;;;;;12.60;99.90;12.80;99747.00;;;;339374;28;82533;-87
2023/05/02 00:56:25;;;;;;;;;;;12.70;99.90;12.90;99750.00;;;;338540;28;96130;-88
2023/05/02 00:56:37;;;;;;;;;;;12.70;99.90;12.90;99737.00;;;;339477;28;82509;-87
2023/05/02 00:56:49;;;;;;;;;;;12.70;99.90;13.00;99741.00;;;;338702;28;96508;-87
2023/05/02 00:57:01;;;;;;;;;;;12.60;99.90;13.00;99739.00;;;;339496;28;82389;-87
2023/05/02 00:57:13;;;;;;;;;;;12.70;99.90;13.00;99748.00;;;;338624;28;96986;-87
2023/05/02 00:57:25;;;;;;;;;;;12.70;99.90;13.00;99748.00;;;;339351;28;83232;-87
2023/05/02 00:57:37;;;;;;;;;;;12.70;99.90;12.90;99739.00;;;;335906;28;94811;-87
2023/05/02 00:57:49;;;;;;;;;;;12.70;99.90;13.00;99734.00;;;;340523;28;83497;-88
2023/05/02 00:58:02;;;;;;;;;;;12.70;99.90;12.90;99745.00;;;;338494;28;97682;-88
2023/05/02 00:58:15;;;;;;;;;;;12.70;99.90;12.80;99747.00;;;;338005;28;83476;-87
2023/05/02 00:58:27;;;;;;;;;;;12.70;99.90;12.90;99743.00;;;;338569;28;95341;-87
2023/05/02 00:58:40;;;;;;;;;;;12.70;99.90;12.90;99746.00;;;;338006;28;83483;-87
2023/05/02 00:58:52;;;;;;;;;;;12.70;99.90;12.90;99748.00;;;;338570;28;95218;-87
2023/05/02 00:59:04;;;;;;;;;;;12.70;99.90;12.90;99744.00;;;;339991;28;82613;-87
2023/05/02 00:59:17;;;;;;;;;;;12.60;99.90;13.00;99746.00;;;;338652;28;93981;-87
2023/05/02 00:59:28;;;;;;;;;;;12.70;99.90;12.90;99748.00;;;;337895;28;83590;-87
2023/05/02 00:59:40;;;;;;;;;;;12.70;99.90;12.80;99744.00;;;;339910;28;95440;-87
2023/05/02 00:59:52;;;;;;;;;;;12.70;99.90;12.80;99747.00;;;;340709;28;83429;-88
2023/05/02 01:00:05;;;;;;;;;;;12.70;99.90;12.90;99742.00;;;;341176;28;97822;-87
2023/05/02 01:00:17;;;;;;;;;;;12.60;99.90;13.00;99743.00;;;;340681;28;82463;-87
2023/05/02 01:00:46;;;;;;;;;;;12.60;99.90;12.90;99747.00;;;;338659;28;94454;-88
2023/05/02 01:01:00;;;;;;;;;;;12.60;99.90;13.00;99752.00;;;;341921;28;83463;-87